EZY93RC EGKK-GCRR
Flight info
| Callsign | EZY93RC |
|---|---|
| Flight time | 3h 49m |
| Altitude | 35000 |
| Route | IMVUR N63 SAM M195 LORKU BALDA ABUPI DIGAL GAIOS TAKAV VEDOD UN857 TERTO |
| Aircraft | A21N/M-SDE2E3FGHIRWXY/SB2 |
Departure
| Time | 2026-05-06 08:08 |
|---|---|
| Airport | London Gatwick Airport (EGKK) |
Arrival
| Time | 2026-05-06 11:57 |
|---|---|
| Airport | César Manrique-Lanzarote Airport (GCRR) |
| Time | Latitude | Longitude | Altitude | Speed | Heading |
|---|---|---|---|---|---|
| 2026-05-06 07:36 | 51.15861 | -0.17950 | 205 ft | 0 kts | 78° |
| 2026-05-06 07:51 | 51.15857 | -0.17982 | 205 ft | 4 kts | 82° |
| 2026-05-06 07:51 | 51.15854 | -0.18024 | 205 ft | 4 kts | 92° |
| 2026-05-06 07:52 | 51.15857 | -0.18066 | 205 ft | 4 kts | 117° |
| 2026-05-06 07:52 | 51.15868 | -0.18092 | 205 ft | 1 kts | 167° |
| 2026-05-06 07:52 | 51.15869 | -0.18092 | 205 ft | 0 kts | 167° |
| 2026-05-06 07:56 | 51.15846 | -0.18084 | 213 ft | 7 kts | 167° |
| 2026-05-06 07:56 | 51.15776 | -0.18060 | 205 ft | 13 kts | 167° |
| 2026-05-06 07:57 | 51.15719 | -0.18042 | 214 ft | 9 kts | 175° |
| 2026-05-06 07:57 | 51.15678 | -0.18123 | 216 ft | 11 kts | 252° |
| 2026-05-06 07:57 | 51.15659 | -0.18258 | 205 ft | 14 kts | 258° |
| 2026-05-06 07:57 | 51.15638 | -0.18415 | 205 ft | 16 kts | 257° |
| 2026-05-06 07:58 | 51.15614 | -0.18584 | 212 ft | 16 kts | 257° |
| 2026-05-06 07:58 | 51.15595 | -0.18722 | 215 ft | 11 kts | 257° |
| 2026-05-06 07:58 | 51.15562 | -0.18823 | 205 ft | 10 kts | 210° |
| 2026-05-06 07:58 | 51.15484 | -0.18810 | 215 ft | 13 kts | 168° |
| 2026-05-06 07:59 | 51.15389 | -0.18777 | 214 ft | 15 kts | 167° |
| 2026-05-06 07:59 | 51.15302 | -0.18746 | 205 ft | 12 kts | 167° |
| 2026-05-06 07:59 | 51.15217 | -0.18717 | 205 ft | 12 kts | 167° |
| 2026-05-06 07:59 | 51.15142 | -0.18721 | 213 ft | 12 kts | 215° |
| 2026-05-06 08:00 | 51.15115 | -0.18854 | 216 ft | 14 kts | 258° |
| 2026-05-06 08:00 | 51.15093 | -0.19013 | 205 ft | 16 kts | 257° |
| 2026-05-06 08:00 | 51.15068 | -0.19196 | 210 ft | 18 kts | 258° |
| 2026-05-06 08:00 | 51.15043 | -0.19379 | 214 ft | 16 kts | 258° |
| 2026-05-06 08:01 | 51.15017 | -0.19566 | 205 ft | 18 kts | 257° |
| 2026-05-06 08:01 | 51.14988 | -0.19774 | 205 ft | 20 kts | 257° |
| 2026-05-06 08:01 | 51.14961 | -0.19970 | 205 ft | 19 kts | 257° |
| 2026-05-06 08:01 | 51.14933 | -0.20175 | 205 ft | 20 kts | 257° |
| 2026-05-06 08:02 | 51.14907 | -0.20360 | 206 ft | 17 kts | 257° |
| 2026-05-06 08:02 | 51.14880 | -0.20557 | 213 ft | 19 kts | 257° |
| 2026-05-06 08:02 | 51.14852 | -0.20753 | 210 ft | 19 kts | 257° |
| 2026-05-06 08:02 | 51.14828 | -0.20931 | 216 ft | 14 kts | 257° |
| 2026-05-06 08:03 | 51.14809 | -0.21065 | 205 ft | 11 kts | 257° |
| 2026-05-06 08:03 | 51.14789 | -0.21170 | 215 ft | 8 kts | 249° |
| 2026-05-06 08:03 | 51.14772 | -0.21269 | 209 ft | 11 kts | 257° |
| 2026-05-06 08:03 | 51.14752 | -0.21381 | 213 ft | 10 kts | 241° |
| 2026-05-06 08:04 | 51.14707 | -0.21403 | 212 ft | 8 kts | 178° |
| 2026-05-06 08:04 | 51.14656 | -0.21348 | 205 ft | 10 kts | 140° |
| 2026-05-06 08:04 | 51.14620 | -0.21331 | 205 ft | 4 kts | 168° |
| 2026-05-06 08:04 | 51.14618 | -0.21330 | 205 ft | 0 kts | 168° |
| 2026-05-06 08:05 | 51.14616 | -0.21329 | 205 ft | 2 kts | 168° |
| 2026-05-06 08:05 | 51.14583 | -0.21318 | 214 ft | 8 kts | 165° |
| 2026-05-06 08:06 | 51.14530 | -0.21249 | 216 ft | 11 kts | 123° |
| 2026-05-06 08:06 | 51.14519 | -0.21181 | 216 ft | 6 kts | 91° |
| 2026-05-06 08:06 | 51.14523 | -0.21147 | 206 ft | 1 kts | 77° |
| 2026-05-06 08:06 | 51.14526 | -0.21131 | 207 ft | 2 kts | 77° |
| 2026-05-06 08:07 | 51.14531 | -0.21094 | 207 ft | 6 kts | 77° |
| 2026-05-06 08:07 | 51.14568 | -0.20825 | 213 ft | 56 kts | 77° |
| 2026-05-06 08:07 | 51.14698 | -0.19879 | 217 ft | 119 kts | 78° |
| 2026-05-06 08:07 | 51.14916 | -0.18321 | 214 ft | 167 kts | 76° |
| 2026-05-06 08:08 | 51.15150 | -0.16512 | 824 ft | 162 kts | 78° |
| 2026-05-06 08:08 | 51.15351 | -0.14764 | 1582 ft | 158 kts | 74° |
| 2026-05-06 08:08 | 51.15606 | -0.13029 | 2186 ft | 166 kts | 72° |
| 2026-05-06 08:08 | 51.15886 | -0.11173 | 2610 ft | 180 kts | 73° |
| 2026-05-06 08:09 | 51.16190 | -0.09100 | 2983 ft | 205 kts | 74° |
| 2026-05-06 08:09 | 51.16700 | -0.06944 | 3194 ft | 211 kts | 51° |
| 2026-05-06 08:09 | 51.17846 | -0.05472 | 3428 ft | 217 kts | 21° |
| 2026-05-06 08:09 | 51.19332 | -0.05193 | 3675 ft | 223 kts | 351° |
| 2026-05-06 08:10 | 51.20856 | -0.05784 | 3931 ft | 225 kts | 341° |
| 2026-05-06 08:10 | 51.22121 | -0.07229 | 4215 ft | 241 kts | 309° |
| 2026-05-06 08:10 | 51.22791 | -0.09793 | 4675 ft | 264 kts | 278° |
| 2026-05-06 08:10 | 51.22699 | -0.12736 | 5131 ft | 268 kts | 262° |
| 2026-05-06 08:11 | 51.22303 | -0.15656 | 5575 ft | 268 kts | 258° |
| 2026-05-06 08:11 | 51.21863 | -0.18549 | 6035 ft | 269 kts | 258° |
| 2026-05-06 08:11 | 51.21451 | -0.21456 | 6485 ft | 269 kts | 259° |
| 2026-05-06 08:11 | 51.21076 | -0.24383 | 6935 ft | 269 kts | 261° |
| 2026-05-06 08:12 | 51.20725 | -0.27327 | 7385 ft | 271 kts | 261° |
| 2026-05-06 08:12 | 51.20391 | -0.30227 | 7832 ft | 273 kts | 262° |
| 2026-05-06 08:12 | 51.20051 | -0.33208 | 8285 ft | 273 kts | 262° |
| 2026-05-06 08:12 | 51.19707 | -0.36157 | 8729 ft | 275 kts | 261° |
| 2026-05-06 08:13 | 51.19320 | -0.39188 | 9182 ft | 276 kts | 260° |
| 2026-05-06 08:13 | 51.18928 | -0.42155 | 9612 ft | 278 kts | 260° |
| 2026-05-06 08:13 | 51.18527 | -0.45185 | 10080 ft | 281 kts | 260° |
| 2026-05-06 08:13 | 51.18123 | -0.48253 | 10532 ft | 284 kts | 260° |
| 2026-05-06 08:14 | 51.17706 | -0.51338 | 10977 ft | 287 kts | 258° |
| 2026-05-06 08:14 | 51.17120 | -0.54465 | 11445 ft | 302 kts | 252° |
| 2026-05-06 08:14 | 51.16310 | -0.57645 | 11907 ft | 317 kts | 248° |
| 2026-05-06 08:14 | 51.15424 | -0.60935 | 12363 ft | 330 kts | 248° |
| 2026-05-06 08:15 | 51.14517 | -0.64331 | 12817 ft | 335 kts | 248° |
| 2026-05-06 08:15 | 51.13605 | -0.67746 | 13269 ft | 336 kts | 248° |
| 2026-05-06 08:15 | 51.12687 | -0.71183 | 13720 ft | 338 kts | 248° |
| 2026-05-06 08:15 | 51.11764 | -0.74634 | 14171 ft | 340 kts | 248° |
| 2026-05-06 08:16 | 51.10848 | -0.78055 | 14605 ft | 342 kts | 248° |
| 2026-05-06 08:16 | 51.09912 | -0.81545 | 14883 ft | 343 kts | 248° |
| 2026-05-06 08:16 | 51.08974 | -0.85036 | 14992 ft | 345 kts | 248° |
| 2026-05-06 08:16 | 51.08033 | -0.88532 | 14989 ft | 343 kts | 248° |
| 2026-05-06 08:17 | 51.07093 | -0.92019 | 14990 ft | 343 kts | 248° |
| 2026-05-06 08:17 | 51.06151 | -0.95506 | 14988 ft | 343 kts | 248° |
| 2026-05-06 08:17 | 51.05209 | -0.98993 | 14991 ft | 343 kts | 248° |
| 2026-05-06 08:17 | 51.04266 | -1.02475 | 14992 ft | 343 kts | 248° |
| 2026-05-06 08:18 | 51.03320 | -1.05961 | 15028 ft | 345 kts | 248° |
| 2026-05-06 08:18 | 51.02352 | -1.09530 | 15270 ft | 357 kts | 248° |
| 2026-05-06 08:18 | 51.01364 | -1.13161 | 15924 ft | 359 kts | 248° |
| 2026-05-06 08:18 | 51.00383 | -1.16762 | 16539 ft | 362 kts | 248° |
| 2026-05-06 08:19 | 50.99380 | -1.20437 | 17137 ft | 365 kts | 248° |
| 2026-05-06 08:19 | 50.98366 | -1.24144 | 17723 ft | 368 kts | 248° |
| 2026-05-06 08:19 | 50.97343 | -1.27880 | 18296 ft | 370 kts | 248° |
| 2026-05-06 08:19 | 50.96227 | -1.31576 | 18833 ft | 374 kts | 240° |
| 2026-05-06 08:20 | 50.94645 | -1.34884 | 19336 ft | 379 kts | 227° |
| 2026-05-06 08:20 | 50.92614 | -1.37578 | 19860 ft | 384 kts | 214° |
| 2026-05-06 08:20 | 50.90364 | -1.39890 | 20367 ft | 387 kts | 214° |
| 2026-05-06 08:20 | 50.88105 | -1.42226 | 20868 ft | 390 kts | 214° |
| 2026-05-06 08:21 | 50.85827 | -1.44592 | 21365 ft | 393 kts | 214° |
| 2026-05-06 08:21 | 50.83540 | -1.46969 | 21834 ft | 395 kts | 214° |
| 2026-05-06 08:21 | 50.81235 | -1.49365 | 22299 ft | 398 kts | 214° |
| 2026-05-06 08:21 | 50.78914 | -1.51774 | 22766 ft | 400 kts | 214° |
| 2026-05-06 08:22 | 50.76606 | -1.54166 | 23181 ft | 403 kts | 214° |
| 2026-05-06 08:22 | 50.74253 | -1.56603 | 23616 ft | 406 kts | 213° |
| 2026-05-06 08:22 | 50.71882 | -1.59054 | 24046 ft | 408 kts | 213° |
| 2026-05-06 08:22 | 50.69497 | -1.61514 | 24469 ft | 411 kts | 213° |
| 2026-05-06 08:23 | 50.67102 | -1.63981 | 24867 ft | 413 kts | 213° |
| 2026-05-06 08:23 | 50.64686 | -1.66466 | 25256 ft | 415 kts | 213° |
| 2026-05-06 08:23 | 50.62265 | -1.68954 | 25651 ft | 417 kts | 213° |
| 2026-05-06 08:23 | 50.59823 | -1.71460 | 26012 ft | 419 kts | 213° |
| 2026-05-06 08:24 | 50.57375 | -1.73969 | 26366 ft | 421 kts | 213° |
| 2026-05-06 08:24 | 50.54914 | -1.76489 | 26710 ft | 423 kts | 213° |
| 2026-05-06 08:24 | 50.52470 | -1.78987 | 27042 ft | 425 kts | 213° |
| 2026-05-06 08:24 | 50.49985 | -1.81524 | 27363 ft | 427 kts | 213° |
| 2026-05-06 08:25 | 50.47487 | -1.84071 | 27675 ft | 429 kts | 213° |
| 2026-05-06 08:25 | 50.44980 | -1.86625 | 27975 ft | 431 kts | 213° |
| 2026-05-06 08:25 | 50.42462 | -1.89185 | 28302 ft | 431 kts | 213° |
| 2026-05-06 08:25 | 50.39938 | -1.91750 | 28534 ft | 434 kts | 213° |
| 2026-05-06 08:26 | 50.37395 | -1.94329 | 28802 ft | 436 kts | 213° |
| 2026-05-06 08:26 | 50.34849 | -1.96909 | 29062 ft | 437 kts | 213° |
| 2026-05-06 08:26 | 50.32288 | -1.99500 | 29312 ft | 439 kts | 213° |
| 2026-05-06 08:26 | 50.29724 | -2.02090 | 29590 ft | 439 kts | 213° |
| 2026-05-06 08:27 | 50.27180 | -2.04657 | 29820 ft | 441 kts | 213° |
| 2026-05-06 08:27 | 50.24601 | -2.07255 | 30051 ft | 443 kts | 213° |
| 2026-05-06 08:27 | 50.21998 | -2.09841 | 30289 ft | 444 kts | 212° |
| 2026-05-06 08:27 | 50.19370 | -2.12399 | 30504 ft | 446 kts | 212° |
| 2026-05-06 08:28 | 50.16727 | -2.14957 | 30726 ft | 448 kts | 212° |
| 2026-05-06 08:28 | 50.14075 | -2.17524 | 30942 ft | 450 kts | 212° |
| 2026-05-06 08:28 | 50.11415 | -2.20101 | 31195 ft | 450 kts | 212° |
| 2026-05-06 08:28 | 50.08754 | -2.22680 | 31476 ft | 450 kts | 212° |
| 2026-05-06 08:29 | 50.06092 | -2.25258 | 31752 ft | 450 kts | 212° |
| 2026-05-06 08:29 | 50.03432 | -2.27832 | 32034 ft | 450 kts | 212° |
| 2026-05-06 08:29 | 50.00777 | -2.30398 | 32292 ft | 450 kts | 212° |
| 2026-05-06 08:29 | 49.98122 | -2.32961 | 32547 ft | 449 kts | 212° |
| 2026-05-06 08:30 | 49.95475 | -2.35434 | 32750 ft | 451 kts | 210° |
| 2026-05-06 08:30 | 49.92709 | -2.37716 | 32982 ft | 451 kts | 207° |
| 2026-05-06 08:30 | 49.89860 | -2.39755 | 33203 ft | 451 kts | 204° |
| 2026-05-06 08:30 | 49.86966 | -2.41645 | 33424 ft | 451 kts | 204° |
| 2026-05-06 08:31 | 49.84077 | -2.43555 | 33647 ft | 451 kts | 204° |
| 2026-05-06 08:31 | 49.81198 | -2.45469 | 33846 ft | 451 kts | 204° |
| 2026-05-06 08:31 | 49.78311 | -2.47389 | 34042 ft | 451 kts | 204° |
| 2026-05-06 08:31 | 49.75428 | -2.49305 | 34245 ft | 451 kts | 204° |
| 2026-05-06 08:32 | 49.72535 | -2.51222 | 34393 ft | 452 kts | 204° |
| 2026-05-06 08:32 | 49.69683 | -2.53109 | 34557 ft | 452 kts | 204° |
| 2026-05-06 08:32 | 49.66790 | -2.55021 | 34766 ft | 452 kts | 204° |
| 2026-05-06 08:32 | 49.63900 | -2.56927 | 34929 ft | 452 kts | 204° |
| 2026-05-06 08:33 | 49.58113 | -2.60734 | 34969 ft | 452 kts | 204° |
| 2026-05-06 08:33 | 49.52329 | -2.64528 | 34963 ft | 452 kts | 204° |
| 2026-05-06 08:34 | 49.43667 | -2.70190 | 34962 ft | 453 kts | 204° |
| 2026-05-06 08:35 | 49.37858 | -2.73976 | 34961 ft | 453 kts | 204° |
| 2026-05-06 08:35 | 49.32043 | -2.77755 | 34963 ft | 454 kts | 204° |
| 2026-05-06 08:36 | 49.26226 | -2.81526 | 34967 ft | 454 kts | 203° |
| 2026-05-06 08:36 | 49.20401 | -2.85292 | 34972 ft | 455 kts | 203° |
| 2026-05-06 08:37 | 49.14604 | -2.89030 | 34972 ft | 455 kts | 203° |
| 2026-05-06 08:37 | 49.08772 | -2.92782 | 34972 ft | 455 kts | 203° |
| 2026-05-06 08:38 | 49.02930 | -2.96530 | 34975 ft | 456 kts | 203° |
| 2026-05-06 08:38 | 48.97079 | -3.00274 | 34970 ft | 456 kts | 203° |
| 2026-05-06 08:39 | 48.91223 | -3.04011 | 34973 ft | 456 kts | 203° |
| 2026-05-06 08:39 | 48.85402 | -3.07717 | 34975 ft | 457 kts | 203° |
| 2026-05-06 08:40 | 48.79538 | -3.11441 | 34967 ft | 457 kts | 203° |
| 2026-05-06 08:40 | 48.73664 | -3.15160 | 34966 ft | 458 kts | 203° |
| 2026-05-06 08:41 | 48.67784 | -3.18875 | 34969 ft | 458 kts | 203° |
| 2026-05-06 08:41 | 48.61899 | -3.22585 | 34970 ft | 458 kts | 203° |
| 2026-05-06 08:42 | 48.56055 | -3.26258 | 34973 ft | 458 kts | 203° |
| 2026-05-06 08:42 | 48.50161 | -3.29954 | 34972 ft | 458 kts | 203° |
| 2026-05-06 08:43 | 48.44271 | -3.33637 | 34968 ft | 458 kts | 203° |
| 2026-05-06 08:43 | 48.38379 | -3.37313 | 34969 ft | 458 kts | 203° |
| 2026-05-06 08:44 | 48.32521 | -3.40958 | 34970 ft | 458 kts | 203° |
| 2026-05-06 08:44 | 48.26629 | -3.44616 | 34970 ft | 458 kts | 203° |
| 2026-05-06 08:45 | 48.20738 | -3.48264 | 34969 ft | 458 kts | 203° |
| 2026-05-06 08:45 | 48.14849 | -3.51902 | 34967 ft | 458 kts | 203° |
| 2026-05-06 08:46 | 48.08960 | -3.55529 | 34960 ft | 458 kts | 203° |
| 2026-05-06 08:46 | 48.03114 | -3.59121 | 34962 ft | 457 kts | 203° |
| 2026-05-06 08:47 | 47.97228 | -3.62729 | 34960 ft | 457 kts | 203° |
| 2026-05-06 08:47 | 47.91342 | -3.66330 | 34960 ft | 457 kts | 203° |
| 2026-05-06 08:48 | 47.85456 | -3.69920 | 34955 ft | 457 kts | 203° |
| 2026-05-06 08:48 | 47.79610 | -3.73478 | 34955 ft | 457 kts | 203° |
| 2026-05-06 08:49 | 47.73725 | -3.77050 | 34956 ft | 457 kts | 203° |
| 2026-05-06 08:49 | 47.67836 | -3.80617 | 34955 ft | 457 kts | 203° |
| 2026-05-06 08:50 | 47.61950 | -3.84173 | 34955 ft | 457 kts | 203° |
| 2026-05-06 08:50 | 47.57052 | -3.87126 | 34954 ft | 457 kts | 203° |
| 2026-05-06 08:51 | 47.50198 | -3.91246 | 34954 ft | 458 kts | 203° |
| 2026-05-06 08:51 | 47.44292 | -3.94789 | 34955 ft | 458 kts | 203° |
| 2026-05-06 08:52 | 47.39376 | -3.97731 | 34956 ft | 459 kts | 203° |
| 2026-05-06 08:52 | 47.33457 | -4.01265 | 34956 ft | 459 kts | 203° |
| 2026-05-06 08:53 | 47.26571 | -4.05364 | 34957 ft | 460 kts | 203° |
| 2026-05-06 08:53 | 47.21595 | -4.08321 | 34960 ft | 460 kts | 203° |
| 2026-05-06 08:54 | 47.15694 | -4.11820 | 34959 ft | 461 kts | 203° |
| 2026-05-06 08:54 | 47.09737 | -4.15342 | 34959 ft | 462 kts | 202° |
| 2026-05-06 08:55 | 47.03776 | -4.18858 | 34966 ft | 462 kts | 202° |
| 2026-05-06 08:55 | 46.97807 | -4.22371 | 34972 ft | 462 kts | 202° |
| 2026-05-06 08:56 | 46.91879 | -4.25851 | 34973 ft | 463 kts | 202° |
| 2026-05-06 08:56 | 46.85897 | -4.29354 | 34971 ft | 463 kts | 202° |
| 2026-05-06 08:57 | 46.79906 | -4.32854 | 34970 ft | 464 kts | 202° |
| 2026-05-06 08:57 | 46.73910 | -4.36349 | 34974 ft | 464 kts | 202° |
| 2026-05-06 08:58 | 46.67954 | -4.39813 | 34975 ft | 464 kts | 202° |
| 2026-05-06 08:58 | 46.61947 | -4.43298 | 34986 ft | 465 kts | 202° |
| 2026-05-06 08:59 | 46.55941 | -4.46773 | 34983 ft | 465 kts | 202° |
| 2026-05-06 08:59 | 46.49928 | -4.50245 | 34987 ft | 465 kts | 202° |
| 2026-05-06 09:00 | 46.43905 | -4.53714 | 34988 ft | 466 kts | 202° |
| 2026-05-06 09:00 | 46.37919 | -4.57153 | 34992 ft | 466 kts | 202° |
| 2026-05-06 09:01 | 46.31893 | -4.60606 | 35008 ft | 466 kts | 202° |
| 2026-05-06 09:01 | 46.25863 | -4.64054 | 35002 ft | 466 kts | 202° |
| 2026-05-06 09:02 | 46.19832 | -4.67494 | 35007 ft | 466 kts | 202° |
| 2026-05-06 09:02 | 46.13791 | -4.70933 | 35008 ft | 466 kts | 202° |
| 2026-05-06 09:03 | 46.07800 | -4.74334 | 35017 ft | 466 kts | 202° |
| 2026-05-06 09:03 | 46.01769 | -4.77750 | 35015 ft | 466 kts | 202° |
| 2026-05-06 09:04 | 45.95741 | -4.81155 | 35016 ft | 465 kts | 202° |
| 2026-05-06 09:04 | 45.89725 | -4.84546 | 35016 ft | 464 kts | 202° |
| 2026-05-06 09:05 | 45.83754 | -4.87906 | 35010 ft | 464 kts | 202° |
| 2026-05-06 09:05 | 45.77755 | -4.91274 | 35022 ft | 463 kts | 202° |
| 2026-05-06 09:06 | 45.71757 | -4.94632 | 35021 ft | 463 kts | 202° |
| 2026-05-06 09:06 | 45.65763 | -4.97980 | 35017 ft | 462 kts | 202° |
| 2026-05-06 09:07 | 45.59774 | -5.01317 | 35020 ft | 462 kts | 202° |
| 2026-05-06 09:07 | 45.53832 | -5.04621 | 35014 ft | 461 kts | 202° |
| 2026-05-06 09:08 | 45.47859 | -5.07934 | 35022 ft | 461 kts | 202° |
| 2026-05-06 09:08 | 45.41884 | -5.11241 | 35023 ft | 461 kts | 202° |
| 2026-05-06 09:09 | 45.35912 | -5.14539 | 35022 ft | 460 kts | 202° |
| 2026-05-06 09:09 | 45.29941 | -5.17829 | 35022 ft | 460 kts | 202° |
| 2026-05-06 09:10 | 45.24011 | -5.21089 | 35042 ft | 459 kts | 202° |
| 2026-05-06 09:10 | 45.18060 | -5.24351 | 35058 ft | 458 kts | 202° |
| 2026-05-06 09:11 | 45.12115 | -5.27605 | 35051 ft | 458 kts | 202° |
| 2026-05-06 09:11 | 45.06180 | -5.30846 | 35048 ft | 457 kts | 202° |
| 2026-05-06 09:12 | 45.00296 | -5.34052 | 35045 ft | 456 kts | 202° |
| 2026-05-06 09:12 | 44.94385 | -5.37266 | 35037 ft | 455 kts | 202° |
| 2026-05-06 09:13 | 44.88483 | -5.40468 | 35034 ft | 454 kts | 202° |
| 2026-05-06 09:13 | 44.82595 | -5.43655 | 35029 ft | 453 kts | 202° |
| 2026-05-06 09:14 | 44.76751 | -5.46813 | 35023 ft | 453 kts | 202° |
| 2026-05-06 09:14 | 44.70876 | -5.49984 | 35023 ft | 452 kts | 202° |
| 2026-05-06 09:15 | 44.65007 | -5.53144 | 35031 ft | 452 kts | 202° |
| 2026-05-06 09:15 | 44.59144 | -5.56325 | 35030 ft | 451 kts | 204° |
| 2026-05-06 09:16 | 44.53412 | -5.59882 | 35029 ft | 451 kts | 206° |
| 2026-05-06 09:16 | 44.47732 | -5.63465 | 35031 ft | 451 kts | 206° |
| 2026-05-06 09:17 | 44.41991 | -5.67023 | 35026 ft | 451 kts | 206° |
| 2026-05-06 09:17 | 44.36237 | -5.70564 | 35034 ft | 453 kts | 206° |
| 2026-05-06 09:18 | 44.30469 | -5.74102 | 35040 ft | 453 kts | 206° |
| 2026-05-06 09:18 | 44.24736 | -5.77612 | 35049 ft | 453 kts | 206° |
| 2026-05-06 09:19 | 44.18958 | -5.81141 | 35049 ft | 453 kts | 206° |
| 2026-05-06 09:19 | 44.13185 | -5.84661 | 35051 ft | 453 kts | 206° |
| 2026-05-06 09:20 | 44.07411 | -5.88173 | 35050 ft | 453 kts | 206° |
| 2026-05-06 09:20 | 44.01629 | -5.91683 | 35052 ft | 453 kts | 206° |
| 2026-05-06 09:21 | 43.95891 | -5.95160 | 35052 ft | 453 kts | 206° |
| 2026-05-06 09:21 | 43.90109 | -5.98655 | 35050 ft | 453 kts | 206° |
| 2026-05-06 09:22 | 43.84333 | -6.02139 | 35049 ft | 453 kts | 206° |
| 2026-05-06 09:22 | 43.78559 | -6.05615 | 35049 ft | 453 kts | 206° |
| 2026-05-06 09:23 | 43.72821 | -6.09061 | 35050 ft | 452 kts | 206° |
| 2026-05-06 09:23 | 43.67050 | -6.12521 | 35050 ft | 452 kts | 206° |
| 2026-05-06 09:24 | 43.61281 | -6.15971 | 35050 ft | 452 kts | 206° |
| 2026-05-06 09:24 | 43.55519 | -6.19410 | 35050 ft | 451 kts | 206° |
| 2026-05-06 09:25 | 43.49759 | -6.22840 | 35050 ft | 451 kts | 206° |
| 2026-05-06 09:25 | 43.44038 | -6.26242 | 35052 ft | 451 kts | 206° |
| 2026-05-06 09:26 | 43.38285 | -6.29654 | 35052 ft | 450 kts | 206° |
| 2026-05-06 09:26 | 43.32535 | -6.33056 | 35054 ft | 450 kts | 206° |
| 2026-05-06 09:27 | 43.26834 | -6.36425 | 35050 ft | 449 kts | 206° |
| 2026-05-06 09:27 | 43.21105 | -6.39801 | 35053 ft | 448 kts | 206° |
| 2026-05-06 09:28 | 43.15381 | -6.43169 | 35054 ft | 447 kts | 206° |
| 2026-05-06 09:28 | 43.09665 | -6.46525 | 35052 ft | 446 kts | 206° |
| 2026-05-06 09:29 | 43.03959 | -6.49867 | 35049 ft | 445 kts | 206° |
| 2026-05-06 09:29 | 42.98266 | -6.53196 | 35043 ft | 445 kts | 206° |
| 2026-05-06 09:30 | 42.92619 | -6.56491 | 35045 ft | 444 kts | 206° |
| 2026-05-06 09:30 | 42.86956 | -6.59790 | 35043 ft | 443 kts | 206° |
| 2026-05-06 09:31 | 42.81279 | -6.63088 | 35040 ft | 442 kts | 206° |
| 2026-05-06 09:31 | 42.75623 | -6.66369 | 35037 ft | 442 kts | 206° |
| 2026-05-06 09:32 | 42.70010 | -6.69619 | 35032 ft | 441 kts | 206° |
| 2026-05-06 09:32 | 42.64364 | -6.72880 | 35032 ft | 441 kts | 206° |
| 2026-05-06 09:33 | 42.58720 | -6.76134 | 35037 ft | 441 kts | 206° |
| 2026-05-06 09:33 | 42.53075 | -6.79383 | 35035 ft | 441 kts | 206° |
| 2026-05-06 09:34 | 42.47425 | -6.82629 | 35040 ft | 441 kts | 206° |
| 2026-05-06 09:34 | 42.41814 | -6.85845 | 35040 ft | 441 kts | 206° |
| 2026-05-06 09:35 | 42.36158 | -6.89081 | 35040 ft | 441 kts | 206° |
| 2026-05-06 09:35 | 42.30497 | -6.92312 | 35043 ft | 442 kts | 206° |
| 2026-05-06 09:36 | 42.24833 | -6.95540 | 35044 ft | 442 kts | 206° |
| 2026-05-06 09:36 | 42.19168 | -6.98762 | 35046 ft | 442 kts | 206° |
| 2026-05-06 09:37 | 42.13532 | -7.01961 | 35051 ft | 443 kts | 206° |
| 2026-05-06 09:37 | 42.07855 | -7.05177 | 35052 ft | 443 kts | 206° |
| 2026-05-06 09:38 | 42.02174 | -7.08389 | 35051 ft | 443 kts | 206° |
| 2026-05-06 09:38 | 41.96498 | -7.11591 | 35063 ft | 442 kts | 206° |
| 2026-05-06 09:39 | 41.90869 | -7.14760 | 35072 ft | 441 kts | 206° |
| 2026-05-06 09:39 | 41.85211 | -7.17943 | 35066 ft | 441 kts | 206° |
| 2026-05-06 09:40 | 41.79557 | -7.21119 | 35059 ft | 440 kts | 206° |
| 2026-05-06 09:40 | 41.70893 | -7.25254 | 35048 ft | 442 kts | 199° |
| 2026-05-06 09:41 | 41.65022 | -7.27488 | 35046 ft | 441 kts | 199° |
| 2026-05-06 09:41 | 41.59127 | -7.29770 | 35042 ft | 441 kts | 199° |
| 2026-05-06 09:42 | 41.53235 | -7.32042 | 35038 ft | 440 kts | 199° |
| 2026-05-06 09:42 | 41.47350 | -7.34301 | 35040 ft | 440 kts | 199° |
| 2026-05-06 09:43 | 41.41466 | -7.36556 | 35038 ft | 440 kts | 199° |
| 2026-05-06 09:43 | 41.35627 | -7.38787 | 35037 ft | 440 kts | 199° |
| 2026-05-06 09:44 | 41.29749 | -7.41031 | 35040 ft | 439 kts | 199° |
| 2026-05-06 09:44 | 41.23873 | -7.43270 | 35043 ft | 439 kts | 199° |
| 2026-05-06 09:45 | 41.17997 | -7.45505 | 35046 ft | 439 kts | 199° |
| 2026-05-06 09:45 | 41.12162 | -7.47719 | 35051 ft | 439 kts | 199° |
| 2026-05-06 09:46 | 41.06289 | -7.49943 | 35053 ft | 439 kts | 199° |
| 2026-05-06 09:46 | 41.00421 | -7.52163 | 35053 ft | 438 kts | 199° |
| 2026-05-06 09:47 | 40.94555 | -7.54378 | 35053 ft | 438 kts | 199° |
| 2026-05-06 09:47 | 40.88697 | -7.56585 | 35044 ft | 438 kts | 199° |
| 2026-05-06 09:48 | 40.82880 | -7.58772 | 35047 ft | 437 kts | 199° |
| 2026-05-06 09:48 | 40.77033 | -7.60967 | 35044 ft | 436 kts | 199° |
| 2026-05-06 09:49 | 40.71195 | -7.63154 | 35042 ft | 436 kts | 199° |
| 2026-05-06 09:49 | 40.65362 | -7.65336 | 35041 ft | 435 kts | 199° |
| 2026-05-06 09:50 | 40.59574 | -7.67496 | 35036 ft | 435 kts | 199° |
| 2026-05-06 09:50 | 40.53759 | -7.69663 | 35036 ft | 434 kts | 199° |
| 2026-05-06 09:51 | 40.47957 | -7.71823 | 35035 ft | 433 kts | 199° |
| 2026-05-06 09:51 | 40.42161 | -7.73975 | 35033 ft | 433 kts | 199° |
| 2026-05-06 09:52 | 40.36373 | -7.76120 | 35030 ft | 432 kts | 199° |
| 2026-05-06 09:52 | 40.30623 | -7.78247 | 35030 ft | 432 kts | 199° |
| 2026-05-06 09:53 | 40.24848 | -7.80383 | 35029 ft | 431 kts | 199° |
| 2026-05-06 09:53 | 40.19073 | -7.82512 | 35023 ft | 431 kts | 199° |
| 2026-05-06 09:54 | 40.13300 | -7.84637 | 35026 ft | 431 kts | 199° |
| 2026-05-06 09:54 | 40.07566 | -7.86743 | 35023 ft | 431 kts | 199° |
| 2026-05-06 09:55 | 40.01789 | -7.88861 | 35024 ft | 431 kts | 199° |
| 2026-05-06 09:55 | 39.96008 | -7.90977 | 35030 ft | 432 kts | 199° |
| 2026-05-06 09:56 | 39.90225 | -7.93091 | 35030 ft | 432 kts | 199° |
| 2026-05-06 09:56 | 39.84433 | -7.95204 | 35035 ft | 432 kts | 199° |
| 2026-05-06 09:57 | 39.78679 | -7.97299 | 35033 ft | 432 kts | 199° |
| 2026-05-06 09:57 | 39.72884 | -7.99411 | 35040 ft | 432 kts | 200° |
| 2026-05-06 09:58 | 39.67122 | -8.01626 | 35039 ft | 432 kts | 200° |
| 2026-05-06 09:58 | 39.61362 | -8.03865 | 35041 ft | 432 kts | 200° |
| 2026-05-06 09:59 | 39.55591 | -8.06086 | 35039 ft | 432 kts | 200° |
| 2026-05-06 09:59 | 39.49864 | -8.08283 | 35037 ft | 432 kts | 200° |
| 2026-05-06 10:00 | 39.44108 | -8.10486 | 35037 ft | 432 kts | 200° |
| 2026-05-06 10:00 | 39.38343 | -8.12689 | 35037 ft | 431 kts | 200° |
| 2026-05-06 10:01 | 39.32596 | -8.14881 | 35045 ft | 430 kts | 200° |
| 2026-05-06 10:01 | 39.26896 | -8.17051 | 35045 ft | 430 kts | 200° |
| 2026-05-06 10:02 | 39.21168 | -8.19228 | 35044 ft | 429 kts | 200° |
| 2026-05-06 10:02 | 39.15448 | -8.21398 | 35036 ft | 428 kts | 200° |
| 2026-05-06 10:03 | 39.09744 | -8.23558 | 35037 ft | 427 kts | 200° |
| 2026-05-06 10:03 | 39.04056 | -8.25710 | 35029 ft | 426 kts | 200° |
| 2026-05-06 10:04 | 38.98418 | -8.27839 | 35030 ft | 425 kts | 200° |
| 2026-05-06 10:04 | 38.92757 | -8.29973 | 35028 ft | 424 kts | 200° |
| 2026-05-06 10:05 | 38.87111 | -8.32097 | 35028 ft | 422 kts | 200° |
| 2026-05-06 10:05 | 38.81476 | -8.34214 | 35022 ft | 421 kts | 200° |
| 2026-05-06 10:06 | 38.75893 | -8.36308 | 35020 ft | 420 kts | 200° |
| 2026-05-06 10:06 | 38.70285 | -8.38408 | 35011 ft | 419 kts | 200° |
| 2026-05-06 10:07 | 38.64690 | -8.40499 | 35011 ft | 419 kts | 200° |
| 2026-05-06 10:07 | 38.59106 | -8.42585 | 35009 ft | 418 kts | 200° |
| 2026-05-06 10:08 | 38.53532 | -8.44662 | 35010 ft | 417 kts | 201° |
| 2026-05-06 10:08 | 38.47998 | -8.46721 | 35011 ft | 417 kts | 201° |
| 2026-05-06 10:09 | 38.42433 | -8.48788 | 35013 ft | 416 kts | 201° |
| 2026-05-06 10:09 | 38.36875 | -8.50850 | 35015 ft | 416 kts | 201° |
| 2026-05-06 10:10 | 38.31316 | -8.52909 | 35006 ft | 416 kts | 201° |
| 2026-05-06 10:10 | 38.25806 | -8.54947 | 35015 ft | 415 kts | 201° |
| 2026-05-06 10:11 | 38.20260 | -8.56998 | 35008 ft | 415 kts | 201° |
| 2026-05-06 10:11 | 38.14721 | -8.59047 | 35011 ft | 415 kts | 201° |
| 2026-05-06 10:12 | 38.09175 | -8.61096 | 35014 ft | 415 kts | 201° |
| 2026-05-06 10:12 | 38.03632 | -8.63140 | 35013 ft | 415 kts | 201° |
| 2026-05-06 10:13 | 37.98117 | -8.65169 | 35017 ft | 415 kts | 201° |
| 2026-05-06 10:13 | 37.92574 | -8.67204 | 35027 ft | 415 kts | 201° |
| 2026-05-06 10:14 | 37.87032 | -8.69238 | 35020 ft | 415 kts | 201° |
| 2026-05-06 10:14 | 37.81493 | -8.71267 | 35018 ft | 414 kts | 201° |
| 2026-05-06 10:15 | 37.75954 | -8.73291 | 35017 ft | 414 kts | 201° |
| 2026-05-06 10:15 | 37.70450 | -8.75301 | 35012 ft | 415 kts | 201° |
| 2026-05-06 10:16 | 37.64908 | -8.77322 | 35006 ft | 415 kts | 201° |
| 2026-05-06 10:16 | 37.59365 | -8.79339 | 35010 ft | 415 kts | 201° |
| 2026-05-06 10:17 | 37.53822 | -8.81353 | 35011 ft | 415 kts | 201° |
| 2026-05-06 10:17 | 37.48313 | -8.83351 | 35000 ft | 414 kts | 201° |
| 2026-05-06 10:18 | 37.42773 | -8.85358 | 34998 ft | 414 kts | 201° |
| 2026-05-06 10:18 | 37.37232 | -8.87362 | 35007 ft | 414 kts | 201° |
| 2026-05-06 10:19 | 37.31690 | -8.89363 | 35002 ft | 414 kts | 201° |
| 2026-05-06 10:19 | 37.26142 | -8.91364 | 35007 ft | 415 kts | 201° |
| 2026-05-06 10:20 | 37.20636 | -8.93346 | 35010 ft | 415 kts | 200° |
| 2026-05-06 10:20 | 37.15085 | -8.95341 | 35009 ft | 415 kts | 200° |
| 2026-05-06 10:21 | 37.09528 | -8.97335 | 35009 ft | 415 kts | 200° |
| 2026-05-06 10:21 | 37.03974 | -8.99325 | 35014 ft | 415 kts | 201° |
| 2026-05-06 10:22 | 36.98453 | -9.01301 | 35006 ft | 416 kts | 201° |
| 2026-05-06 10:22 | 36.92891 | -9.03288 | 35005 ft | 416 kts | 201° |
| 2026-05-06 10:23 | 36.87328 | -9.05273 | 35008 ft | 416 kts | 200° |
| 2026-05-06 10:23 | 36.81769 | -9.07253 | 35007 ft | 416 kts | 200° |
| 2026-05-06 10:24 | 36.76209 | -9.09230 | 34999 ft | 415 kts | 200° |
| 2026-05-06 10:24 | 36.70691 | -9.11190 | 35004 ft | 415 kts | 200° |
| 2026-05-06 10:25 | 36.65139 | -9.13159 | 35005 ft | 415 kts | 200° |
| 2026-05-06 10:25 | 36.59593 | -9.15122 | 35008 ft | 414 kts | 200° |
| 2026-05-06 10:26 | 36.54050 | -9.17082 | 35002 ft | 414 kts | 200° |
| 2026-05-06 10:26 | 36.48516 | -9.19035 | 35003 ft | 413 kts | 200° |
| 2026-05-06 10:27 | 36.43017 | -9.20974 | 34995 ft | 413 kts | 200° |
| 2026-05-06 10:27 | 36.37492 | -9.22918 | 34990 ft | 413 kts | 200° |
| 2026-05-06 10:28 | 36.31965 | -9.24861 | 34997 ft | 413 kts | 200° |
| 2026-05-06 10:28 | 36.26444 | -9.26798 | 34992 ft | 412 kts | 200° |
| 2026-05-06 10:29 | 36.20923 | -9.28732 | 35001 ft | 412 kts | 200° |
| 2026-05-06 10:29 | 36.15439 | -9.30651 | 34997 ft | 412 kts | 200° |
| 2026-05-06 10:30 | 36.09920 | -9.32580 | 34995 ft | 412 kts | 200° |
| 2026-05-06 10:30 | 36.04395 | -9.34508 | 34997 ft | 413 kts | 200° |
| 2026-05-06 10:31 | 35.98892 | -9.36504 | 34997 ft | 411 kts | 203° |
| 2026-05-06 10:31 | 35.93620 | -9.39026 | 35006 ft | 408 kts | 208° |
| 2026-05-06 10:32 | 35.88503 | -9.42022 | 35007 ft | 407 kts | 209° |
| 2026-05-06 10:32 | 35.83388 | -9.45019 | 34998 ft | 407 kts | 209° |
| 2026-05-06 10:33 | 35.78277 | -9.48015 | 35000 ft | 407 kts | 209° |
| 2026-05-06 10:33 | 35.73206 | -9.50991 | 34996 ft | 407 kts | 209° |
| 2026-05-06 10:34 | 35.68100 | -9.53983 | 35003 ft | 406 kts | 209° |
| 2026-05-06 10:34 | 35.62991 | -9.56973 | 34995 ft | 406 kts | 209° |
| 2026-05-06 10:35 | 35.57884 | -9.59956 | 34994 ft | 406 kts | 209° |
| 2026-05-06 10:35 | 35.52809 | -9.62916 | 35005 ft | 406 kts | 209° |
| 2026-05-06 10:36 | 35.47702 | -9.65890 | 34994 ft | 407 kts | 209° |
| 2026-05-06 10:36 | 35.42590 | -9.68864 | 34998 ft | 407 kts | 209° |
| 2026-05-06 10:37 | 35.37473 | -9.71835 | 34990 ft | 407 kts | 209° |
| 2026-05-06 10:37 | 35.32354 | -9.74803 | 34994 ft | 407 kts | 209° |
| 2026-05-06 10:38 | 35.27270 | -9.77747 | 34995 ft | 407 kts | 209° |
| 2026-05-06 10:38 | 35.22146 | -9.80710 | 35000 ft | 407 kts | 209° |
| 2026-05-06 10:39 | 35.17017 | -9.83672 | 34992 ft | 408 kts | 209° |
| 2026-05-06 10:39 | 35.11885 | -9.86632 | 35002 ft | 408 kts | 209° |
| 2026-05-06 10:40 | 35.06781 | -9.89570 | 34994 ft | 408 kts | 209° |
| 2026-05-06 10:40 | 35.01636 | -9.92529 | 34993 ft | 409 kts | 209° |
| 2026-05-06 10:41 | 34.96492 | -9.95482 | 35007 ft | 409 kts | 209° |
| 2026-05-06 10:41 | 34.91340 | -9.98438 | 34992 ft | 409 kts | 209° |
| 2026-05-06 10:42 | 34.86176 | -10.01396 | 34976 ft | 410 kts | 209° |
| 2026-05-06 10:42 | 34.81045 | -10.04330 | 34983 ft | 411 kts | 209° |
| 2026-05-06 10:43 | 34.75866 | -10.07287 | 34986 ft | 411 kts | 208° |
| 2026-05-06 10:44 | 34.68080 | -10.11726 | 34997 ft | 413 kts | 208° |
| 2026-05-06 10:44 | 34.62879 | -10.14685 | 35004 ft | 413 kts | 208° |
| 2026-05-06 10:45 | 34.57707 | -10.17625 | 35002 ft | 414 kts | 208° |
| 2026-05-06 10:45 | 34.52495 | -10.20582 | 35005 ft | 414 kts | 208° |
| 2026-05-06 10:46 | 34.47276 | -10.23540 | 35013 ft | 414 kts | 208° |
| 2026-05-06 10:46 | 34.42057 | -10.26493 | 35007 ft | 414 kts | 208° |
| 2026-05-06 10:47 | 34.36868 | -10.29426 | 35014 ft | 414 kts | 208° |
| 2026-05-06 10:47 | 34.31648 | -10.32372 | 35006 ft | 414 kts | 208° |
| 2026-05-06 10:48 | 34.26428 | -10.35313 | 35009 ft | 414 kts | 208° |
| 2026-05-06 10:48 | 34.21212 | -10.38249 | 34999 ft | 413 kts | 208° |
| 2026-05-06 10:49 | 34.15998 | -10.41181 | 35003 ft | 413 kts | 208° |
| 2026-05-06 10:49 | 34.10824 | -10.44085 | 35004 ft | 413 kts | 208° |
| 2026-05-06 10:50 | 34.05613 | -10.47005 | 34991 ft | 413 kts | 208° |
| 2026-05-06 10:50 | 34.00405 | -10.49921 | 34980 ft | 413 kts | 208° |
| 2026-05-06 10:51 | 33.95199 | -10.52829 | 35000 ft | 412 kts | 208° |
| 2026-05-06 10:51 | 33.90037 | -10.55713 | 34989 ft | 411 kts | 208° |
| 2026-05-06 10:52 | 33.84853 | -10.58602 | 34995 ft | 410 kts | 208° |
| 2026-05-06 10:52 | 33.79677 | -10.61484 | 34986 ft | 409 kts | 208° |
| 2026-05-06 10:53 | 33.74511 | -10.64356 | 34987 ft | 408 kts | 208° |
| 2026-05-06 10:53 | 33.69394 | -10.67197 | 34986 ft | 408 kts | 208° |
| 2026-05-06 10:54 | 33.64252 | -10.70048 | 34986 ft | 406 kts | 208° |
| 2026-05-06 10:54 | 33.59127 | -10.72886 | 34987 ft | 405 kts | 208° |
| 2026-05-06 10:55 | 33.54006 | -10.75719 | 34984 ft | 405 kts | 208° |
| 2026-05-06 10:55 | 33.48871 | -10.78557 | 34988 ft | 411 kts | 208° |
| 2026-05-06 10:56 | 33.43658 | -10.81434 | 34986 ft | 417 kts | 208° |
| 2026-05-06 10:56 | 33.38402 | -10.84327 | 34984 ft | 415 kts | 208° |
| 2026-05-06 10:57 | 33.33162 | -10.87209 | 34986 ft | 414 kts | 208° |
| 2026-05-06 10:57 | 33.27930 | -10.90083 | 34986 ft | 414 kts | 208° |
| 2026-05-06 10:58 | 33.22708 | -10.92948 | 34983 ft | 412 kts | 208° |
| 2026-05-06 10:58 | 33.17536 | -10.95782 | 34980 ft | 411 kts | 209° |
| 2026-05-06 10:59 | 33.12345 | -10.98623 | 34982 ft | 410 kts | 209° |
| 2026-05-06 10:59 | 33.07163 | -11.01456 | 34987 ft | 409 kts | 209° |
| 2026-05-06 11:00 | 33.01990 | -11.04279 | 34986 ft | 409 kts | 209° |
| 2026-05-06 11:00 | 32.96821 | -11.07098 | 34986 ft | 409 kts | 209° |
| 2026-05-06 11:01 | 32.91677 | -11.09898 | 34991 ft | 409 kts | 209° |
| 2026-05-06 11:01 | 32.86502 | -11.12712 | 34999 ft | 409 kts | 209° |
| 2026-05-06 11:02 | 32.81317 | -11.15528 | 34994 ft | 410 kts | 209° |
| 2026-05-06 11:02 | 32.76129 | -11.18342 | 35005 ft | 410 kts | 209° |
| 2026-05-06 11:03 | 32.70967 | -11.21139 | 35008 ft | 411 kts | 209° |
| 2026-05-06 11:03 | 32.65761 | -11.23954 | 35010 ft | 412 kts | 208° |
| 2026-05-06 11:04 | 32.60545 | -11.26772 | 35018 ft | 412 kts | 208° |
| 2026-05-06 11:04 | 32.55327 | -11.29587 | 35025 ft | 412 kts | 208° |
| 2026-05-06 11:05 | 32.50099 | -11.32404 | 35021 ft | 413 kts | 208° |
| 2026-05-06 11:05 | 32.44905 | -11.35200 | 35020 ft | 413 kts | 208° |
| 2026-05-06 11:06 | 32.39669 | -11.38015 | 35018 ft | 414 kts | 208° |
| 2026-05-06 11:06 | 32.34421 | -11.40833 | 35018 ft | 415 kts | 208° |
| 2026-05-06 11:07 | 32.29164 | -11.43652 | 35014 ft | 415 kts | 208° |
| 2026-05-06 11:07 | 32.23932 | -11.46454 | 35017 ft | 416 kts | 208° |
| 2026-05-06 11:08 | 32.18655 | -11.49275 | 35018 ft | 416 kts | 208° |
| 2026-05-06 11:08 | 32.13373 | -11.52095 | 35020 ft | 417 kts | 208° |
| 2026-05-06 11:09 | 32.08083 | -11.54918 | 35023 ft | 417 kts | 208° |
| 2026-05-06 11:09 | 32.02787 | -11.57740 | 35018 ft | 418 kts | 208° |
| 2026-05-06 11:10 | 31.97483 | -11.60561 | 35025 ft | 418 kts | 208° |
| 2026-05-06 11:10 | 31.92221 | -11.63355 | 35028 ft | 418 kts | 208° |
| 2026-05-06 11:11 | 31.86927 | -11.66166 | 35028 ft | 417 kts | 208° |
| 2026-05-06 11:11 | 31.81632 | -11.68973 | 35022 ft | 417 kts | 208° |
| 2026-05-06 11:12 | 31.76340 | -11.71774 | 35023 ft | 417 kts | 208° |
| 2026-05-06 11:12 | 31.71088 | -11.74550 | 35021 ft | 417 kts | 208° |
| 2026-05-06 11:13 | 31.65799 | -11.77343 | 35024 ft | 416 kts | 208° |
| 2026-05-06 11:13 | 31.60521 | -11.80126 | 35022 ft | 416 kts | 208° |
| 2026-05-06 11:14 | 31.55247 | -11.82903 | 35022 ft | 415 kts | 208° |
| 2026-05-06 11:14 | 31.49983 | -11.85671 | 35011 ft | 414 kts | 208° |
| 2026-05-06 11:15 | 31.44765 | -11.88412 | 35015 ft | 413 kts | 208° |
| 2026-05-06 11:15 | 31.39523 | -11.91162 | 35008 ft | 412 kts | 208° |
| 2026-05-06 11:16 | 31.34304 | -11.93897 | 35013 ft | 411 kts | 208° |
| 2026-05-06 11:16 | 31.29974 | -11.96162 | 35011 ft | 409 kts | 209° |
| 2026-05-06 11:17 | 31.24787 | -11.98875 | 35017 ft | 407 kts | 209° |
| 2026-05-06 11:17 | 31.18792 | -12.02006 | 34976 ft | 406 kts | 209° |
| 2026-05-06 11:18 | 31.13637 | -12.04695 | 35001 ft | 405 kts | 208° |
| 2026-05-06 11:18 | 31.09360 | -12.06923 | 34999 ft | 405 kts | 209° |
| 2026-05-06 11:19 | 31.04232 | -12.09591 | 34996 ft | 403 kts | 209° |
| 2026-05-06 11:19 | 30.98293 | -12.12678 | 35014 ft | 401 kts | 209° |
| 2026-05-06 11:20 | 30.93207 | -12.15318 | 35015 ft | 399 kts | 209° |
| 2026-05-06 11:20 | 30.88991 | -12.17504 | 35012 ft | 398 kts | 209° |
| 2026-05-06 11:21 | 30.83940 | -12.20120 | 35009 ft | 396 kts | 209° |
| 2026-05-06 11:21 | 30.78913 | -12.22721 | 35019 ft | 394 kts | 210° |
| 2026-05-06 11:22 | 30.73907 | -12.25308 | 35023 ft | 393 kts | 210° |
| 2026-05-06 11:22 | 30.68957 | -12.27865 | 35015 ft | 391 kts | 210° |
| 2026-05-06 11:23 | 30.63993 | -12.30427 | 35012 ft | 390 kts | 210° |
| 2026-05-06 11:23 | 30.59041 | -12.32980 | 35011 ft | 389 kts | 210° |
| 2026-05-06 11:24 | 30.54118 | -12.35547 | 35018 ft | 386 kts | 211° |
| 2026-05-06 11:24 | 30.49451 | -12.38535 | 35013 ft | 381 kts | 217° |
| 2026-05-06 11:25 | 30.45157 | -12.42004 | 35008 ft | 378 kts | 220° |
| 2026-05-06 11:25 | 30.40938 | -12.45630 | 35004 ft | 377 kts | 220° |
| 2026-05-06 11:26 | 30.36723 | -12.49235 | 35001 ft | 376 kts | 220° |
| 2026-05-06 11:26 | 30.32515 | -12.52840 | 35002 ft | 376 kts | 220° |
| 2026-05-06 11:27 | 30.28307 | -12.56442 | 35001 ft | 376 kts | 220° |
| 2026-05-06 11:27 | 30.24129 | -12.60016 | 34996 ft | 376 kts | 220° |
| 2026-05-06 11:28 | 30.19920 | -12.63612 | 34993 ft | 377 kts | 220° |
| 2026-05-06 11:28 | 30.15702 | -12.67212 | 35010 ft | 376 kts | 220° |
| 2026-05-06 11:28 | 30.13614 | -12.68991 | 34746 ft | 372 kts | 220° |
| 2026-05-06 11:29 | 30.11540 | -12.70803 | 33849 ft | 376 kts | 223° |
| 2026-05-06 11:29 | 30.09586 | -12.72839 | 32732 ft | 380 kts | 227° |
| 2026-05-06 11:29 | 30.07784 | -12.75105 | 31623 ft | 385 kts | 230° |
| 2026-05-06 11:29 | 30.06036 | -12.77384 | 30887 ft | 382 kts | 230° |
| 2026-05-06 11:30 | 30.04283 | -12.79647 | 30298 ft | 375 kts | 230° |
| 2026-05-06 11:30 | 30.02557 | -12.81866 | 29779 ft | 368 kts | 230° |
| 2026-05-06 11:30 | 30.00858 | -12.84050 | 29285 ft | 362 kts | 230° |
| 2026-05-06 11:30 | 29.99196 | -12.86189 | 28766 ft | 355 kts | 230° |
| 2026-05-06 11:31 | 29.97562 | -12.88293 | 28253 ft | 349 kts | 230° |
| 2026-05-06 11:31 | 29.95954 | -12.90360 | 27752 ft | 343 kts | 230° |
| 2026-05-06 11:31 | 29.94379 | -12.92384 | 27260 ft | 337 kts | 230° |
| 2026-05-06 11:31 | 29.92820 | -12.94388 | 26763 ft | 336 kts | 230° |
| 2026-05-06 11:32 | 29.91144 | -12.96293 | 26046 ft | 343 kts | 223° |
| 2026-05-06 11:32 | 29.89177 | -12.97929 | 25474 ft | 360 kts | 215° |
| 2026-05-06 11:32 | 29.86913 | -12.99269 | 25179 ft | 378 kts | 207° |
| 2026-05-06 11:32 | 29.84414 | -13.00295 | 24683 ft | 384 kts | 203° |
| 2026-05-06 11:33 | 29.81876 | -13.01267 | 24117 ft | 383 kts | 203° |
| 2026-05-06 11:33 | 29.79365 | -13.02233 | 23561 ft | 378 kts | 203° |
| 2026-05-06 11:33 | 29.76886 | -13.03188 | 23011 ft | 372 kts | 204° |
| 2026-05-06 11:33 | 29.74449 | -13.04128 | 22467 ft | 366 kts | 204° |
| 2026-05-06 11:34 | 29.72054 | -13.05054 | 21940 ft | 360 kts | 204° |
| 2026-05-06 11:34 | 29.69698 | -13.05965 | 21409 ft | 354 kts | 204° |
| 2026-05-06 11:34 | 29.67377 | -13.06863 | 20878 ft | 349 kts | 204° |
| 2026-05-06 11:34 | 29.65120 | -13.07736 | 20275 ft | 346 kts | 204° |
| 2026-05-06 11:35 | 29.62825 | -13.08625 | 19557 ft | 349 kts | 204° |
| 2026-05-06 11:35 | 29.60503 | -13.09526 | 19172 ft | 354 kts | 203° |
| 2026-05-06 11:35 | 29.58155 | -13.10435 | 18747 ft | 358 kts | 203° |
| 2026-05-06 11:35 | 29.55791 | -13.11348 | 18206 ft | 359 kts | 203° |
| 2026-05-06 11:36 | 29.53432 | -13.12254 | 17647 ft | 355 kts | 203° |
| 2026-05-06 11:36 | 29.51112 | -13.13146 | 17109 ft | 349 kts | 203° |
| 2026-05-06 11:36 | 29.48827 | -13.14023 | 16699 ft | 342 kts | 203° |
| 2026-05-06 11:36 | 29.46600 | -13.14881 | 16410 ft | 345 kts | 203° |
| 2026-05-06 11:37 | 29.44320 | -13.15761 | 16068 ft | 345 kts | 203° |
| 2026-05-06 11:37 | 29.42051 | -13.16632 | 15729 ft | 342 kts | 203° |
| 2026-05-06 11:37 | 29.39801 | -13.17496 | 15388 ft | 341 kts | 203° |
| 2026-05-06 11:37 | 29.37561 | -13.18357 | 15058 ft | 340 kts | 202° |
| 2026-05-06 11:38 | 29.35317 | -13.19212 | 14711 ft | 340 kts | 201° |
| 2026-05-06 11:38 | 29.33046 | -13.19971 | 14384 ft | 339 kts | 199° |
| 2026-05-06 11:38 | 29.30766 | -13.20673 | 14051 ft | 339 kts | 199° |
| 2026-05-06 11:38 | 29.28490 | -13.21368 | 13715 ft | 338 kts | 199° |
| 2026-05-06 11:39 | 29.26258 | -13.22059 | 13398 ft | 336 kts | 199° |
| 2026-05-06 11:39 | 29.24010 | -13.22765 | 13116 ft | 334 kts | 199° |
| 2026-05-06 11:39 | 29.21780 | -13.23483 | 12906 ft | 333 kts | 200° |
| 2026-05-06 11:39 | 29.19548 | -13.24235 | 12321 ft | 335 kts | 200° |
| 2026-05-06 11:40 | 29.17366 | -13.24977 | 12010 ft | 318 kts | 200° |
| 2026-05-06 11:40 | 29.15309 | -13.25673 | 11823 ft | 299 kts | 200° |
| 2026-05-06 11:40 | 29.13355 | -13.26333 | 11556 ft | 290 kts | 200° |
| 2026-05-06 11:40 | 29.11408 | -13.26995 | 11023 ft | 292 kts | 200° |
| 2026-05-06 11:41 | 29.09492 | -13.27645 | 10821 ft | 284 kts | 200° |
| 2026-05-06 11:41 | 29.07562 | -13.28301 | 10602 ft | 292 kts | 200° |
| 2026-05-06 11:41 | 29.05647 | -13.28948 | 10323 ft | 290 kts | 199° |
| 2026-05-06 11:41 | 29.03721 | -13.29595 | 10037 ft | 289 kts | 199° |
| 2026-05-06 11:42 | 29.01784 | -13.30247 | 9748 ft | 291 kts | 199° |
| 2026-05-06 11:42 | 28.99930 | -13.30871 | 9473 ft | 291 kts | 199° |
| 2026-05-06 11:42 | 28.98014 | -13.31513 | 9341 ft | 281 kts | 199° |
| 2026-05-06 11:42 | 28.96188 | -13.32160 | 9210 ft | 267 kts | 200° |
| 2026-05-06 11:43 | 28.94462 | -13.32820 | 8828 ft | 260 kts | 201° |
| 2026-05-06 11:43 | 28.92745 | -13.33490 | 8277 ft | 260 kts | 201° |
| 2026-05-06 11:43 | 28.91061 | -13.34083 | 7974 ft | 257 kts | 189° |
| 2026-05-06 11:44 | 28.87641 | -13.33054 | 7771 ft | 260 kts | 154° |
| 2026-05-06 11:44 | 28.86029 | -13.32135 | 7667 ft | 258 kts | 154° |
| 2026-05-06 11:44 | 28.84423 | -13.31225 | 7515 ft | 258 kts | 154° |
| 2026-05-06 11:44 | 28.82816 | -13.30321 | 7389 ft | 257 kts | 154° |
| 2026-05-06 11:45 | 28.81215 | -13.29422 | 7248 ft | 256 kts | 154° |
| 2026-05-06 11:45 | 28.79613 | -13.28525 | 7110 ft | 256 kts | 154° |
| 2026-05-06 11:45 | 28.77937 | -13.27879 | 6965 ft | 255 kts | 172° |
| 2026-05-06 11:45 | 28.76173 | -13.27828 | 6778 ft | 255 kts | 184° |
| 2026-05-06 11:46 | 28.74442 | -13.27940 | 6654 ft | 252 kts | 184° |
| 2026-05-06 11:46 | 28.72683 | -13.28043 | 6510 ft | 254 kts | 184° |
| 2026-05-06 11:46 | 28.70926 | -13.28137 | 6374 ft | 252 kts | 183° |
| 2026-05-06 11:46 | 28.69173 | -13.28228 | 6237 ft | 252 kts | 184° |
| 2026-05-06 11:47 | 28.67491 | -13.28674 | 6091 ft | 249 kts | 211° |
| 2026-05-06 11:47 | 28.66237 | -13.29991 | 5965 ft | 247 kts | 242° |
| 2026-05-06 11:47 | 28.65763 | -13.31828 | 5824 ft | 243 kts | 274° |
| 2026-05-06 11:47 | 28.66122 | -13.33681 | 5685 ft | 241 kts | 291° |
| 2026-05-06 11:48 | 28.66681 | -13.35473 | 5555 ft | 240 kts | 292° |
| 2026-05-06 11:48 | 28.67231 | -13.37262 | 5409 ft | 239 kts | 291° |
| 2026-05-06 11:48 | 28.67746 | -13.39035 | 5284 ft | 239 kts | 290° |
| 2026-05-06 11:48 | 28.68247 | -13.40841 | 5145 ft | 239 kts | 289° |
| 2026-05-06 11:49 | 28.68735 | -13.42646 | 5014 ft | 238 kts | 289° |
| 2026-05-06 11:49 | 28.69218 | -13.44450 | 4924 ft | 238 kts | 289° |
| 2026-05-06 11:49 | 28.69702 | -13.46258 | 4610 ft | 240 kts | 289° |
| 2026-05-06 11:49 | 28.70192 | -13.48083 | 4301 ft | 239 kts | 290° |
| 2026-05-06 11:50 | 28.70670 | -13.49867 | 4144 ft | 237 kts | 290° |
| 2026-05-06 11:50 | 28.71156 | -13.51667 | 3949 ft | 237 kts | 290° |
| 2026-05-06 11:50 | 28.71635 | -13.53449 | 3741 ft | 234 kts | 290° |
| 2026-05-06 11:50 | 28.72115 | -13.55228 | 3538 ft | 234 kts | 290° |
| 2026-05-06 11:51 | 28.72587 | -13.56976 | 3342 ft | 234 kts | 291° |
| 2026-05-06 11:51 | 28.73065 | -13.58747 | 3144 ft | 233 kts | 291° |
| 2026-05-06 11:51 | 28.73536 | -13.60513 | 2935 ft | 233 kts | 291° |
| 2026-05-06 11:51 | 28.74007 | -13.62282 | 2741 ft | 234 kts | 291° |
| 2026-05-06 11:52 | 28.74483 | -13.64056 | 2573 ft | 234 kts | 290° |
| 2026-05-06 11:52 | 28.74961 | -13.65830 | 2460 ft | 233 kts | 292° |
| 2026-05-06 11:52 | 28.75747 | -13.67360 | 2331 ft | 217 kts | 320° |
| 2026-05-06 11:52 | 28.76936 | -13.68350 | 2302 ft | 215 kts | 331° |
| 2026-05-06 11:53 | 28.78247 | -13.69096 | 2295 ft | 207 kts | 353° |
| 2026-05-06 11:53 | 28.79649 | -13.69039 | 2311 ft | 202 kts | 18° |
| 2026-05-06 11:53 | 28.80934 | -13.68472 | 2307 ft | 201 kts | 27° |
| 2026-05-06 11:53 | 28.82159 | -13.67739 | 2295 ft | 193 kts | 29° |
| 2026-05-06 11:54 | 28.83305 | -13.67074 | 2316 ft | 174 kts | 28° |
| 2026-05-06 11:54 | 28.84346 | -13.66464 | 2081 ft | 164 kts | 28° |
| 2026-05-06 11:54 | 28.85346 | -13.65883 | 1874 ft | 166 kts | 28° |
| 2026-05-06 11:54 | 28.86366 | -13.65289 | 1648 ft | 163 kts | 29° |
| 2026-05-06 11:55 | 28.87377 | -13.64699 | 1431 ft | 164 kts | 29° |
| 2026-05-06 11:55 | 28.88394 | -13.64107 | 1213 ft | 165 kts | 29° |
| 2026-05-06 11:55 | 28.89373 | -13.63538 | 998 ft | 154 kts | 29° |
| 2026-05-06 11:55 | 28.90276 | -13.63010 | 810 ft | 141 kts | 30° |
| 2026-05-06 11:56 | 28.91160 | -13.62494 | 623 ft | 142 kts | 29° |
| 2026-05-06 11:56 | 28.92037 | -13.61983 | 427 ft | 141 kts | 29° |
| 2026-05-06 11:56 | 28.92910 | -13.61479 | 239 ft | 143 kts | 29° |
| 2026-05-06 11:56 | 28.93792 | -13.60958 | 72 ft | 143 kts | 28° |
| 2026-05-06 11:57 | 28.94535 | -13.60528 | 60 ft | 82 kts | 26° |
| 2026-05-06 11:57 | 28.94890 | -13.60323 | 56 ft | 50 kts | 26° |
| 2026-05-06 11:57 | 28.95082 | -13.60222 | 55 ft | 21 kts | 17° |
| 2026-05-06 11:57 | 28.95232 | -13.60209 | 57 ft | 18 kts | 0° |
| 2026-05-06 11:58 | 28.95254 | -13.60210 | 61 ft | 4 kts | 359° |
| 2026-05-06 11:58 | 28.95307 | -13.60221 | 62 ft | 10 kts | 334° |
| 2026-05-06 11:58 | 28.95346 | -13.60298 | 63 ft | 13 kts | 297° |
| 2026-05-06 11:58 | 28.95377 | -13.60374 | 63 ft | 8 kts | 281° |
| 2026-05-06 11:59 | 28.95335 | -13.60425 | 58 ft | 11 kts | 198° |
| 2026-05-06 11:59 | 28.95269 | -13.60459 | 56 ft | 11 kts | 207° |
| 2026-05-06 11:59 | 28.95190 | -13.60506 | 59 ft | 13 kts | 207° |
| 2026-05-06 11:59 | 28.95115 | -13.60550 | 56 ft | 10 kts | 210° |
| 2026-05-06 12:00 | 28.95050 | -13.60612 | 59 ft | 14 kts | 218° |
| 2026-05-06 12:00 | 28.94972 | -13.60659 | 59 ft | 13 kts | 206° |
| 2026-05-06 12:00 | 28.94936 | -13.60699 | 57 ft | 8 kts | 248° |
| 2026-05-06 12:00 | 28.94954 | -13.60765 | 62 ft | 8 kts | 309° |
| 2026-05-06 12:01 | 28.94965 | -13.60783 | 62 ft | 3 kts | 296° |
| 2026-05-06 12:01 | 28.94965 | -13.60784 | 62 ft | 0 kts | 297° |